• Join FlightAware (Why Join?)
  • Login
  • US Flag 
09:53AM EDT


 

Airport Tracker/Info


-or-


 

Live Flight TrackerFlight Track Log ✈ AAR8737 ✈ 20-Dec-2013 ✈ RKSS / GMP - RKJY / RSU

Flight Track Log - Related Links

Times and Time Zones

All times are in EST time to prevent confusion due to time zone crossing. See the AAR8737 flight status page for this flight to view local times or setup timezone preferences in your user account.

Time Position Orientation Groundspeed Altitude Reporting Facility
EST Latitude Longitude Course Direction KTS MPH feet Rate Location/Type
03:58AM 37.1395 126.9215 166° South  Level Estimated
03:59AM 37.0348 126.9541 166° South  Level Estimated
04:00AM 36.9301 126.9865 166° South  Level Estimated
04:01AM 36.8254 127.0188 166° South  Level Estimated
04:02AM 36.7206 127.0511 166° South  Level Estimated
04:03AM 36.6159 127.0832 166° South  Level Estimated
04:04AM 36.5111 127.1153 166° South  Level Estimated
04:05AM 36.4064 127.1473 166° South  Level Estimated
04:06AM 36.3016 127.1792 166° South  Level Estimated
04:07AM 36.1968 127.2110 166° South  Level Estimated
04:08AM 36.0920 127.2427 166° South  Level Estimated
04:09AM 35.9872 127.2744 166° South  Level Estimated
04:10AM 35.8824 127.3059 166° South  Level Estimated
04:11AM 35.7776 127.3374 166° South  Level Estimated
04:12AM 35.6728 127.3688 166° South  Level Estimated
04:13AM 35.5680 127.4001 166° South  Level Estimated
04:14AM 35.4631 127.4314 166° South  Level Estimated
04:15AM 35.3583 127.4625 166° South  Level Estimated
04:16AM 35.2534 127.4936 166° South  Level Estimated
04:17AM 35.1486 127.5246 166° South  Level Estimated
04:18AM 35.0437 127.5555 166° South  Level Estimated
04:19AM 34.9388 127.5863 166° South  Level Estimated
04:20AM 34.8398 127.6153 166° South  Level Estimated
04:21AM 34.8398 127.6153 180° South  Level Estimated
04:22AM 34.8398 127.6153 180° South  Level Estimated
04:23AM 34.8398 127.6153 180° South  Level Estimated
04:24AM 34.8398 127.6153 180° South  Level Estimated
04:25AM 34.8398 127.6153 180° South  Level Estimated
04:26AM 34.8398 127.6153 180° South  Level Estimated
04:27AM 34.8398 127.6153 180° South  Level Estimated
04:28AM 34.8398 127.6153 180° South  Level Estimated
04:29AM 34.8398 127.6153 180° South  Level Estimated
04:30AM 34.8398 127.6153 180° South  Level Estimated
04:31AM 34.8398 127.6153 180° South  Level Estimated
04:32AM 34.8398 127.6153 180° South  Level Estimated
04:33AM 34.8398 127.6153 180° South  Level Estimated
04:34AM 34.8398 127.6153 180° South  Level Estimated
04:35AM 34.8398 127.6153 180° South  Level Estimated
04:36AM 34.8398 127.6153 180° South  Level Estimated